sensor_id;sensor_type;location;lat;lon;timestamp;temperature;humidity
6986;DHT22;3533;51.246;6.850;2023-04-03T00:00:30;18.50;44.10
6986;DHT22;3533;51.246;6.850;2023-04-03T00:02:56;18.50;44.20
6986;DHT22;3533;51.246;6.850;2023-04-03T00:05:22;18.50;44.10
6986;DHT22;3533;51.246;6.850;2023-04-03T00:07:47;18.50;44.10
6986;DHT22;3533;51.246;6.850;2023-04-03T00:10:15;18.50;44.10
6986;DHT22;3533;51.246;6.850;2023-04-03T00:12:41;18.40;44.00
6986;DHT22;3533;51.246;6.850;2023-04-03T00:15:07;18.50;44.10
6986;DHT22;3533;51.246;6.850;2023-04-03T00:17:32;18.40;44.00
6986;DHT22;3533;51.246;6.850;2023-04-03T00:19:58;18.50;44.10
6986;DHT22;3533;51.246;6.850;2023-04-03T00:22:23;18.50;44.10
6986;DHT22;3533;51.246;6.850;2023-04-03T00:24:49;18.50;44.10
6986;DHT22;3533;51.246;6.850;2023-04-03T00:27:14;18.40;44.00
6986;DHT22;3533;51.246;6.850;2023-04-03T00:29:41;18.40;44.00
6986;DHT22;3533;51.246;6.850;2023-04-03T00:32:06;18.40;44.00
6986;DHT22;3533;51.246;6.850;2023-04-03T00:34:32;18.40;44.00
6986;DHT22;3533;51.246;6.850;2023-04-03T00:36:57;18.50;44.10
6986;DHT22;3533;51.246;6.850;2023-04-03T00:39:23;18.40;44.00
6986;DHT22;3533;51.246;6.850;2023-04-03T00:41:48;18.40;44.00
6986;DHT22;3533;51.246;6.850;2023-04-03T00:47:04;18.40;44.00
6986;DHT22;3533;51.246;6.850;2023-04-03T00:49:31;18.40;44.00
6986;DHT22;3533;51.246;6.850;2023-04-03T00:51:57;18.40;44.00
6986;DHT22;3533;51.246;6.850;2023-04-03T00:54:24;18.40;44.00
6986;DHT22;3533;51.246;6.850;2023-04-03T00:56:51;18.40;44.00
6986;DHT22;3533;51.246;6.850;2023-04-03T00:59:24;18.40;44.00
6986;DHT22;3533;51.246;6.850;2023-04-03T01:01:53;18.40;44.00
6986;DHT22;3533;51.246;6.850;2023-04-03T01:04:46;18.40;44.00
6986;DHT22;3533;51.246;6.850;2023-04-03T01:07:17;18.40;44.00
6986;DHT22;3533;51.246;6.850;2023-04-03T01:09:44;18.40;44.00
6986;DHT22;3533;51.246;6.850;2023-04-03T01:14:45;18.40;44.00
6986;DHT22;3533;51.246;6.850;2023-04-03T01:20:31;18.40;44.00
6986;DHT22;3533;51.246;6.850;2023-04-03T01:28:14;18.40;44.00
6986;DHT22;3533;51.246;6.850;2023-04-03T01:31:10;18.40;44.00
6986;DHT22;3533;51.246;6.850;2023-04-03T01:33:37;18.40;44.00
6986;DHT22;3533;51.246;6.850;2023-04-03T01:36:04;18.40;44.00
6986;DHT22;3533;51.246;6.850;2023-04-03T01:38:29;18.40;44.00
6986;DHT22;3533;51.246;6.850;2023-04-03T01:40:55;18.40;44.10
6986;DHT22;3533;51.246;6.850;2023-04-03T01:43:21;18.40;43.90
6986;DHT22;3533;51.246;6.850;2023-04-03T01:45:46;18.40;44.00
6986;DHT22;3533;51.246;6.850;2023-04-03T01:48:12;18.40;43.90
6986;DHT22;3533;51.246;6.850;2023-04-03T01:50:38;18.40;43.90
6986;DHT22;3533;51.246;6.850;2023-04-03T01:53:04;18.40;44.00
6986;DHT22;3533;51.246;6.850;2023-04-03T01:55:30;18.40;44.00
6986;DHT22;3533;51.246;6.850;2023-04-03T01:57:55;18.40;44.20
6986;DHT22;3533;51.246;6.850;2023-04-03T02:00:21;18.40;44.00
6986;DHT22;3533;51.246;6.850;2023-04-03T02:02:47;18.40;44.00
6986;DHT22;3533;51.246;6.850;2023-04-03T02:05:12;18.40;44.00
6986;DHT22;3533;51.246;6.850;2023-04-03T02:07:38;18.30;43.90
6986;DHT22;3533;51.246;6.850;2023-04-03T02:10:03;18.40;44.00
6986;DHT22;3533;51.246;6.850;2023-04-03T02:12:29;18.40;44.00
6986;DHT22;3533;51.246;6.850;2023-04-03T02:14:54;18.40;44.00
6986;DHT22;3533;51.246;6.850;2023-04-03T02:17:20;18.40;44.00
6986;DHT22;3533;51.246;6.850;2023-04-03T02:19:45;18.40;43.90
6986;DHT22;3533;51.246;6.850;2023-04-03T02:22:11;18.40;44.00
6986;DHT22;3533;51.246;6.850;2023-04-03T02:24:36;18.40;44.00
6986;DHT22;3533;51.246;6.850;2023-04-03T02:27:04;18.40;44.00
6986;DHT22;3533;51.246;6.850;2023-04-03T02:29:30;18.30;43.90
6986;DHT22;3533;51.246;6.850;2023-04-03T02:31:55;18.40;44.00
6986;DHT22;3533;51.246;6.850;2023-04-03T02:34:21;18.40;43.90
6986;DHT22;3533;51.246;6.850;2023-04-03T02:36:47;18.40;43.90
6986;DHT22;3533;51.246;6.850;2023-04-03T02:39:12;18.40;43.90
6986;DHT22;3533;51.246;6.850;2023-04-03T02:41:38;18.30;43.90
6986;DHT22;3533;51.246;6.850;2023-04-03T02:44:05;18.30;43.80
6986;DHT22;3533;51.246;6.850;2023-04-03T02:46:31;18.30;43.90
6986;DHT22;3533;51.246;6.850;2023-04-03T02:48:56;18.30;43.90
6986;DHT22;3533;51.246;6.850;2023-04-03T02:51:22;18.30;43.90
6986;DHT22;3533;51.246;6.850;2023-04-03T02:53:50;18.30;43.80
6986;DHT22;3533;51.246;6.850;2023-04-03T02:56:17;18.30;43.80
6986;DHT22;3533;51.246;6.850;2023-04-03T02:58:44;18.30;43.90
6986;DHT22;3533;51.246;6.850;2023-04-03T03:01:10;18.30;43.80
6986;DHT22;3533;51.246;6.850;2023-04-03T03:03:35;18.30;43.80
6986;DHT22;3533;51.246;6.850;2023-04-03T03:08:28;18.30;43.80
6986;DHT22;3533;51.246;6.850;2023-04-03T03:10:53;18.30;43.80
6986;DHT22;3533;51.246;6.850;2023-04-03T03:13:19;18.30;43.80
6986;DHT22;3533;51.246;6.850;2023-04-03T03:15:44;18.30;43.80
6986;DHT22;3533;51.246;6.850;2023-04-03T03:18:10;18.30;43.80
6986;DHT22;3533;51.246;6.850;2023-04-03T03:20:35;18.30;43.80
6986;DHT22;3533;51.246;6.850;2023-04-03T03:23:01;18.30;43.80
6986;DHT22;3533;51.246;6.850;2023-04-03T03:25:26;18.30;43.80
6986;DHT22;3533;51.246;6.850;2023-04-03T03:27:52;18.30;43.70
6986;DHT22;3533;51.246;6.850;2023-04-03T03:30:17;18.30;43.70
6986;DHT22;3533;51.246;6.850;2023-04-03T03:32:43;18.30;43.70
6986;DHT22;3533;51.246;6.850;2023-04-03T03:35:08;18.30;43.70
6986;DHT22;3533;51.246;6.850;2023-04-03T03:37:34;18.30;43.70
6986;DHT22;3533;51.246;6.850;2023-04-03T03:40:00;18.30;43.70
6986;DHT22;3533;51.246;6.850;2023-04-03T03:42:25;18.30;43.70
6986;DHT22;3533;51.246;6.850;2023-04-03T03:44:51;18.30;43.70
6986;DHT22;3533;51.246;6.850;2023-04-03T03:47:17;18.30;43.70
6986;DHT22;3533;51.246;6.850;2023-04-03T03:49:42;18.30;43.60
6986;DHT22;3533;51.246;6.850;2023-04-03T03:52:08;18.30;43.60
6986;DHT22;3533;51.246;6.850;2023-04-03T03:54:36;18.30;43.70
6986;DHT22;3533;51.246;6.850;2023-04-03T03:57:01;18.30;43.70
6986;DHT22;3533;51.246;6.850;2023-04-03T03:59:27;18.30;43.70
6986;DHT22;3533;51.246;6.850;2023-04-03T04:01:52;18.30;43.60
6986;DHT22;3533;51.246;6.850;2023-04-03T04:04:18;18.30;43.60
6986;DHT22;3533;51.246;6.850;2023-04-03T04:06:43;18.30;43.60
6986;DHT22;3533;51.246;6.850;2023-04-03T04:09:09;18.30;43.60
6986;DHT22;3533;51.246;6.850;2023-04-03T04:11:35;18.30;43.50
6986;DHT22;3533;51.246;6.850;2023-04-03T04:14:00;18.30;43.60
6986;DHT22;3533;51.246;6.850;2023-04-03T04:16:26;18.30;43.60
6986;DHT22;3533;51.246;6.850;2023-04-03T04:18:51;18.30;43.50
6986;DHT22;3533;51.246;6.850;2023-04-03T04:21:17;18.30;43.20
6986;DHT22;3533;51.246;6.850;2023-04-03T04:23:42;18.40;43.30
6986;DHT22;3533;51.246;6.850;2023-04-03T04:26:08;18.40;43.30
6986;DHT22;3533;51.246;6.850;2023-04-03T04:28:33;18.40;43.30
6986;DHT22;3533;51.246;6.850;2023-04-03T04:30:59;18.40;43.30
6986;DHT22;3533;51.246;6.850;2023-04-03T04:33:24;18.40;43.30
6986;DHT22;3533;51.246;6.850;2023-04-03T04:35:53;18.40;43.30
6986;DHT22;3533;51.246;6.850;2023-04-03T04:38:19;18.40;43.30
6986;DHT22;3533;51.246;6.850;2023-04-03T04:40:45;18.40;43.30
6986;DHT22;3533;51.246;6.850;2023-04-03T04:43:12;18.40;43.30
6986;DHT22;3533;51.246;6.850;2023-04-03T04:45:40;18.40;43.30
6986;DHT22;3533;51.246;6.850;2023-04-03T04:48:05;18.40;43.20
6986;DHT22;3533;51.246;6.850;2023-04-03T04:50:31;18.50;43.40
6986;DHT22;3533;51.246;6.850;2023-04-03T04:52:56;18.50;43.40
6986;DHT22;3533;51.246;6.850;2023-04-03T04:55:22;18.50;43.40
6986;DHT22;3533;51.246;6.850;2023-04-03T04:57:47;18.50;43.40
6986;DHT22;3533;51.246;6.850;2023-04-03T05:00:13;18.50;43.40
6986;DHT22;3533;51.246;6.850;2023-04-03T05:02:40;18.50;43.40
6986;DHT22;3533;51.246;6.850;2023-04-03T05:05:05;18.50;43.40
6986;DHT22;3533;51.246;6.850;2023-04-03T05:07:31;18.50;43.90
6986;DHT22;3533;51.246;6.850;2023-04-03T05:09:56;18.50;43.40
6986;DHT22;3533;51.246;6.850;2023-04-03T05:12:22;18.50;43.40
6986;DHT22;3533;51.246;6.850;2023-04-03T05:14:48;18.60;43.50
6986;DHT22;3533;51.246;6.850;2023-04-03T05:17:13;18.60;43.50
6986;DHT22;3533;51.246;6.850;2023-04-03T05:19:39;18.50;43.40
6986;DHT22;3533;51.246;6.850;2023-04-03T05:22:04;18.60;43.50
6986;DHT22;3533;51.246;6.850;2023-04-03T05:24:30;18.60;43.50
6986;DHT22;3533;51.246;6.850;2023-04-03T05:26:55;18.60;43.50
6986;DHT22;3533;51.246;6.850;2023-04-03T05:29:21;18.60;43.50
6986;DHT22;3533;51.246;6.850;2023-04-03T05:31:49;18.60;43.50
6986;DHT22;3533;51.246;6.850;2023-04-03T05:34:15;18.60;43.50
6986;DHT22;3533;51.246;6.850;2023-04-03T05:36:41;18.60;43.40
6986;DHT22;3533;51.246;6.850;2023-04-03T05:39:06;18.60;43.50
6986;DHT22;3533;51.246;6.850;2023-04-03T05:41:32;18.60;43.50
6986;DHT22;3533;51.246;6.850;2023-04-03T05:43:58;18.70;43.60
6986;DHT22;3533;51.246;6.850;2023-04-03T05:46:23;18.70;44.30
6986;DHT22;3533;51.246;6.850;2023-04-03T05:48:49;18.70;43.60
6986;DHT22;3533;51.246;6.850;2023-04-03T05:51:22;18.70;43.60
6986;DHT22;3533;51.246;6.850;2023-04-03T05:53:56;18.70;43.60
6986;DHT22;3533;51.246;6.850;2023-04-03T05:56:24;18.70;43.60
6986;DHT22;3533;51.246;6.850;2023-04-03T05:58:49;18.70;43.60
6986;DHT22;3533;51.246;6.850;2023-04-03T06:01:15;18.70;43.50
6986;DHT22;3533;51.246;6.850;2023-04-03T06:03:41;18.70;43.60
6986;DHT22;3533;51.246;6.850;2023-04-03T06:06:06;18.70;43.60
6986;DHT22;3533;51.246;6.850;2023-04-03T06:08:33;18.70;44.30
6986;DHT22;3533;51.246;6.850;2023-04-03T06:10:59;18.70;43.60
6986;DHT22;3533;51.246;6.850;2023-04-03T06:13:25;18.70;43.60
6986;DHT22;3533;51.246;6.850;2023-04-03T06:15:50;18.70;43.50
6986;DHT22;3533;51.246;6.850;2023-04-03T06:18:16;18.70;43.60
6986;DHT22;3533;51.246;6.850;2023-04-03T06:20:41;18.80;43.60
6986;DHT22;3533;51.246;6.850;2023-04-03T06:23:07;18.80;43.60
6986;DHT22;3533;51.246;6.850;2023-04-03T06:25:32;18.80;43.60
6986;DHT22;3533;51.246;6.850;2023-04-03T06:27:58;18.80;43.60
6986;DHT22;3533;51.246;6.850;2023-04-03T06:30:24;18.80;43.60
6986;DHT22;3533;51.246;6.850;2023-04-03T06:32:50;18.80;43.60
6986;DHT22;3533;51.246;6.850;2023-04-03T06:35:15;18.80;43.60
6986;DHT22;3533;51.246;6.850;2023-04-03T06:37:41;18.80;43.60
6986;DHT22;3533;51.246;6.850;2023-04-03T06:40:09;18.80;43.60
6986;DHT22;3533;51.246;6.850;2023-04-03T06:42:36;18.80;43.60
6986;DHT22;3533;51.246;6.850;2023-04-03T06:45:02;18.80;43.60
6986;DHT22;3533;51.246;6.850;2023-04-03T06:47:27;18.90;43.70
6986;DHT22;3533;51.246;6.850;2023-04-03T06:49:53;18.80;43.60
6986;DHT22;3533;51.246;6.850;2023-04-03T06:52:18;18.90;43.70
6986;DHT22;3533;51.246;6.850;2023-04-03T06:54:44;18.80;43.60
6986;DHT22;3533;51.246;6.850;2023-04-03T06:57:10;18.90;43.70
6986;DHT22;3533;51.246;6.850;2023-04-03T06:59:35;18.80;43.60
6986;DHT22;3533;51.246;6.850;2023-04-03T07:02:01;18.80;43.60
6986;DHT22;3533;51.246;6.850;2023-04-03T07:04:27;18.90;43.70
6986;DHT22;3533;51.246;6.850;2023-04-03T07:06:53;18.80;43.60
6986;DHT22;3533;51.246;6.850;2023-04-03T07:09:18;18.90;43.70
6986;DHT22;3533;51.246;6.850;2023-04-03T07:11:44;18.90;43.70
6986;DHT22;3533;51.246;6.850;2023-04-03T07:14:10;18.90;44.50
6986;DHT22;3533;51.246;6.850;2023-04-03T07:16:35;18.90;43.70
6986;DHT22;3533;51.246;6.850;2023-04-03T07:19:02;18.90;43.70
6986;DHT22;3533;51.246;6.850;2023-04-03T07:21:28;18.90;43.70
6986;DHT22;3533;51.246;6.850;2023-04-03T07:23:54;18.90;43.70
6986;DHT22;3533;51.246;6.850;2023-04-03T07:26:20;18.90;44.00
6986;DHT22;3533;51.246;6.850;2023-04-03T07:28:49;18.90;43.70
6986;DHT22;3533;51.246;6.850;2023-04-03T07:31:16;18.90;44.50
6986;DHT22;3533;51.246;6.850;2023-04-03T07:33:43;18.90;43.70
6986;DHT22;3533;51.246;6.850;2023-04-03T07:36:09;18.90;43.70
6986;DHT22;3533;51.246;6.850;2023-04-03T07:38:37;18.90;43.80
6986;DHT22;3533;51.246;6.850;2023-04-03T07:41:03;18.90;43.70
6986;DHT22;3533;51.246;6.850;2023-04-03T07:43:29;18.90;43.70
6986;DHT22;3533;51.246;6.850;2023-04-03T07:45:55;18.90;43.70
6986;DHT22;3533;51.246;6.850;2023-04-03T07:48:23;18.90;43.70
6986;DHT22;3533;51.246;6.850;2023-04-03T07:50:48;19.00;43.80
6986;DHT22;3533;51.246;6.850;2023-04-03T07:53:14;18.90;43.70
6986;DHT22;3533;51.246;6.850;2023-04-03T07:55:40;18.90;43.70
6986;DHT22;3533;51.246;6.850;2023-04-03T07:58:10;18.90;43.80
6986;DHT22;3533;51.246;6.850;2023-04-03T08:00:36;18.90;43.70
6986;DHT22;3533;51.246;6.850;2023-04-03T08:03:01;18.90;43.70
6986;DHT22;3533;51.246;6.850;2023-04-03T08:05:27;18.90;43.70
6986;DHT22;3533;51.246;6.850;2023-04-03T08:07:52;18.90;43.70
6986;DHT22;3533;51.246;6.850;2023-04-03T08:10:18;19.00;43.80
6986;DHT22;3533;51.246;6.850;2023-04-03T08:12:46;18.90;43.70
6986;DHT22;3533;51.246;6.850;2023-04-03T08:15:12;19.00;43.80
6986;DHT22;3533;51.246;6.850;2023-04-03T08:17:37;18.90;43.70
6986;DHT22;3533;51.246;6.850;2023-04-03T08:20:04;18.90;43.70
6986;DHT22;3533;51.246;6.850;2023-04-03T08:22:30;18.90;43.70
6986;DHT22;3533;51.246;6.850;2023-04-03T08:24:55;18.90;43.70
6986;DHT22;3533;51.246;6.850;2023-04-03T08:27:21;18.90;43.70
6986;DHT22;3533;51.246;6.850;2023-04-03T08:29:47;19.00;43.80
6986;DHT22;3533;51.246;6.850;2023-04-03T08:32:12;19.00;43.80
6986;DHT22;3533;51.246;6.850;2023-04-03T08:34:38;18.90;43.70
6986;DHT22;3533;51.246;6.850;2023-04-03T08:37:05;19.00;43.80
6986;DHT22;3533;51.246;6.850;2023-04-03T08:39:31;19.00;43.80
6986;DHT22;3533;51.246;6.850;2023-04-03T08:41:59;19.00;43.80
6986;DHT22;3533;51.246;6.850;2023-04-03T08:49:40;19.00;43.80
6986;DHT22;3533;51.246;6.850;2023-04-03T08:52:14;19.00;43.80
6986;DHT22;3533;51.246;6.850;2023-04-03T08:54:56;19.00;43.80
6986;DHT22;3533;51.246;6.850;2023-04-03T08:57:46;19.00;43.80
6986;DHT22;3533;51.246;6.850;2023-04-03T09:00:16;19.00;43.80
6986;DHT22;3533;51.246;6.850;2023-04-03T09:02:53;19.00;43.80
6986;DHT22;3533;51.246;6.850;2023-04-03T09:10:46;19.00;43.80
6986;DHT22;3533;51.246;6.850;2023-04-03T09:13:30;19.00;43.80
6986;DHT22;3533;51.246;6.850;2023-04-03T09:16:39;19.00;43.80
6986;DHT22;3533;51.246;6.850;2023-04-03T09:21:41;19.00;43.80
6986;DHT22;3533;51.246;6.850;2023-04-03T09:24:10;19.00;43.80
6986;DHT22;3533;51.246;6.850;2023-04-03T09:26:55;19.00;43.80
6986;DHT22;3533;51.246;6.850;2023-04-03T09:29:23;19.00;43.80
6986;DHT22;3533;51.246;6.850;2023-04-03T09:32:18;19.00;43.80
6986;DHT22;3533;51.246;6.850;2023-04-03T09:34:44;19.00;43.80
6986;DHT22;3533;51.246;6.850;2023-04-03T09:37:32;19.00;43.80
6986;DHT22;3533;51.246;6.850;2023-04-03T09:39:58;19.00;43.80
6986;DHT22;3533;51.246;6.850;2023-04-03T09:42:25;19.00;43.80
6986;DHT22;3533;51.246;6.850;2023-04-03T09:45:00;19.00;43.80
6986;DHT22;3533;51.246;6.850;2023-04-03T09:47:33;19.00;43.80
6986;DHT22;3533;51.246;6.850;2023-04-03T09:52:44;19.00;43.80
6986;DHT22;3533;51.246;6.850;2023-04-03T09:55:19;19.00;43.80
6986;DHT22;3533;51.246;6.850;2023-04-03T09:57:47;19.00;43.80
6986;DHT22;3533;51.246;6.850;2023-04-03T10:00:25;19.00;43.80
6986;DHT22;3533;51.246;6.850;2023-04-03T10:02:55;19.00;43.80
6986;DHT22;3533;51.246;6.850;2023-04-03T10:08:28;19.00;43.80
6986;DHT22;3533;51.246;6.850;2023-04-03T10:11:13;19.00;43.80
6986;DHT22;3533;51.246;6.850;2023-04-03T10:13:55;19.00;43.80
6986;DHT22;3533;51.246;6.850;2023-04-03T10:16:45;19.00;43.80
6986;DHT22;3533;51.246;6.850;2023-04-03T10:21:59;19.00;43.80
6986;DHT22;3533;51.246;6.850;2023-04-03T10:24:44;19.00;43.80
6986;DHT22;3533;51.246;6.850;2023-04-03T10:27:23;19.00;43.80
6986;DHT22;3533;51.246;6.850;2023-04-03T10:36:16;19.00;43.80
6986;DHT22;3533;51.246;6.850;2023-04-03T10:46:48;19.00;43.80
6986;DHT22;3533;51.246;6.850;2023-04-03T10:49:25;19.00;43.80
6986;DHT22;3533;51.246;6.850;2023-04-03T10:55:29;19.00;43.80
6986;DHT22;3533;51.246;6.850;2023-04-03T10:57:58;19.00;43.80
6986;DHT22;3533;51.246;6.850;2023-04-03T11:02:58;19.10;43.90
6986;DHT22;3533;51.246;6.850;2023-04-03T11:05:42;19.00;43.80
6986;DHT22;3533;51.246;6.850;2023-04-03T11:08:26;19.10;43.90
6986;DHT22;3533;51.246;6.850;2023-04-03T11:11:00;19.10;43.90
6986;DHT22;3533;51.246;6.850;2023-04-03T11:13:34;19.00;43.80
6986;DHT22;3533;51.246;6.850;2023-04-03T11:16:02;19.00;43.80
6986;DHT22;3533;51.246;6.850;2023-04-03T11:19:21;19.10;43.90
6986;DHT22;3533;51.246;6.850;2023-04-03T11:21:28;19.00;43.80
6986;DHT22;3533;51.246;6.850;2023-04-03T11:23:57;19.10;43.90
6986;DHT22;3533;51.246;6.850;2023-04-03T11:26:27;19.10;43.90
6986;DHT22;3533;51.246;6.850;2023-04-03T11:29:05;19.10;43.90
6986;DHT22;3533;51.246;6.850;2023-04-03T11:34:42;19.10;43.90
6986;DHT22;3533;51.246;6.850;2023-04-03T11:37:35;19.10;43.90
6986;DHT22;3533;51.246;6.850;2023-04-03T11:42:37;19.10;43.90
6986;DHT22;3533;51.246;6.850;2023-04-03T11:47:52;19.10;43.90
6986;DHT22;3533;51.246;6.850;2023-04-03T11:58:18;19.10;43.90
6986;DHT22;3533;51.246;6.850;2023-04-03T12:35:09;19.10;43.90
6986;DHT22;3533;51.246;6.850;2023-04-03T12:48:30;19.20;44.00
6986;DHT22;3533;51.246;6.850;2023-04-03T12:50:57;19.20;43.90
6986;DHT22;3533;51.246;6.850;2023-04-03T12:53:28;19.20;44.00
6986;DHT22;3533;51.246;6.850;2023-04-03T12:56:25;19.20;44.00
6986;DHT22;3533;51.246;6.850;2023-04-03T12:58:53;19.20;44.00
6986;DHT22;3533;51.246;6.850;2023-04-03T13:01:21;19.20;44.00
6986;DHT22;3533;51.246;6.850;2023-04-03T13:03:55;19.20;44.00
6986;DHT22;3533;51.246;6.850;2023-04-03T13:06:24;19.20;44.00
6986;DHT22;3533;51.246;6.850;2023-04-03T13:08:59;19.20;44.00
6986;DHT22;3533;51.246;6.850;2023-04-03T13:11:28;19.20;44.00
6986;DHT22;3533;51.246;6.850;2023-04-03T13:16:21;19.20;44.00
6986;DHT22;3533;51.246;6.850;2023-04-03T13:18:51;19.20;44.00
6986;DHT22;3533;51.246;6.850;2023-04-03T13:21:21;19.20;44.00
6986;DHT22;3533;51.246;6.850;2023-04-03T13:23:49;19.20;44.00
6986;DHT22;3533;51.246;6.850;2023-04-03T13:26:17;19.30;44.10
6986;DHT22;3533;51.246;6.850;2023-04-03T13:28:44;19.30;44.00
6986;DHT22;3533;51.246;6.850;2023-04-03T13:34:10;19.30;44.20
6986;DHT22;3533;51.246;6.850;2023-04-03T13:36:45;19.20;44.80
6986;DHT22;3533;51.246;6.850;2023-04-03T13:41:42;19.20;44.00
6986;DHT22;3533;51.246;6.850;2023-04-03T13:44:28;19.30;44.00
6986;DHT22;3533;51.246;6.850;2023-04-03T13:46:55;19.20;44.00
6986;DHT22;3533;51.246;6.850;2023-04-03T13:49:42;19.30;44.10
6986;DHT22;3533;51.246;6.850;2023-04-03T13:55:18;19.20;43.70
6986;DHT22;3533;51.246;6.850;2023-04-03T13:57:56;19.20;43.80
6986;DHT22;3533;51.246;6.850;2023-04-03T14:00:47;19.20;43.70
6986;DHT22;3533;51.246;6.850;2023-04-03T14:05:52;19.20;43.90
6986;DHT22;3533;51.246;6.850;2023-04-03T14:08:19;19.20;43.80
6986;DHT22;3533;51.246;6.850;2023-04-03T14:10:45;19.20;43.90
6986;DHT22;3533;51.246;6.850;2023-04-03T14:13:14;19.30;44.00
6986;DHT22;3533;51.246;6.850;2023-04-03T14:15:40;19.20;43.80
6986;DHT22;3533;51.246;6.850;2023-04-03T14:18:06;19.20;43.90
6986;DHT22;3533;51.246;6.850;2023-04-03T14:20:31;19.20;43.90
6986;DHT22;3533;51.246;6.850;2023-04-03T14:22:57;19.20;43.80
6986;DHT22;3533;51.246;6.850;2023-04-03T14:25:23;19.20;43.90
6986;DHT22;3533;51.246;6.850;2023-04-03T14:27:52;19.20;43.90
6986;DHT22;3533;51.246;6.850;2023-04-03T14:30:30;19.20;43.90
6986;DHT22;3533;51.246;6.850;2023-04-03T14:32:57;19.20;43.90
6986;DHT22;3533;51.246;6.850;2023-04-03T14:35:23;19.20;44.40
6986;DHT22;3533;51.246;6.850;2023-04-03T14:37:52;19.20;43.80
6986;DHT22;3533;51.246;6.850;2023-04-03T14:40:23;19.20;43.90
6986;DHT22;3533;51.246;6.850;2023-04-03T14:42:49;19.20;43.80
6986;DHT22;3533;51.246;6.850;2023-04-03T14:45:17;19.20;43.80
6986;DHT22;3533;51.246;6.850;2023-04-03T14:47:54;19.20;43.80
6986;DHT22;3533;51.246;6.850;2023-04-03T14:50:26;19.20;43.80
6986;DHT22;3533;51.246;6.850;2023-04-03T14:52:54;19.20;43.70
6986;DHT22;3533;51.246;6.850;2023-04-03T14:55:22;19.20;43.90
6986;DHT22;3533;51.246;6.850;2023-04-03T14:57:48;19.20;43.90
6986;DHT22;3533;51.246;6.850;2023-04-03T15:00:19;19.20;43.90
6986;DHT22;3533;51.246;6.850;2023-04-03T15:02:45;19.20;43.90
6986;DHT22;3533;51.246;6.850;2023-04-03T15:05:11;19.20;43.90
6986;DHT22;3533;51.246;6.850;2023-04-03T15:07:39;19.20;43.90
6986;DHT22;3533;51.246;6.850;2023-04-03T15:10:26;19.20;43.90
6986;DHT22;3533;51.246;6.850;2023-04-03T15:12:52;19.20;43.80
6986;DHT22;3533;51.246;6.850;2023-04-03T15:15:20;19.20;43.90
6986;DHT22;3533;51.246;6.850;2023-04-03T15:17:48;19.20;43.90
6986;DHT22;3533;51.246;6.850;2023-04-03T15:20:16;19.20;43.90
6986;DHT22;3533;51.246;6.850;2023-04-03T15:22:42;19.20;43.80
6986;DHT22;3533;51.246;6.850;2023-04-03T15:25:08;19.20;43.90
6986;DHT22;3533;51.246;6.850;2023-04-03T15:27:34;19.20;43.80
6986;DHT22;3533;51.246;6.850;2023-04-03T15:30:00;19.20;43.80
6986;DHT22;3533;51.246;6.850;2023-04-03T15:32:25;19.20;43.80
6986;DHT22;3533;51.246;6.850;2023-04-03T15:34:50;19.20;43.80
6986;DHT22;3533;51.246;6.850;2023-04-03T15:37:16;19.20;43.90
6986;DHT22;3533;51.246;6.850;2023-04-03T15:39:42;19.20;43.90
6986;DHT22;3533;51.246;6.850;2023-04-03T15:42:07;19.20;43.80
6986;DHT22;3533;51.246;6.850;2023-04-03T15:44:35;19.20;43.90
6986;DHT22;3533;51.246;6.850;2023-04-03T15:47:02;19.20;43.80
6986;DHT22;3533;51.246;6.850;2023-04-03T15:49:28;19.20;43.80
6986;DHT22;3533;51.246;6.850;2023-04-03T15:51:53;19.20;43.70
6986;DHT22;3533;51.246;6.850;2023-04-03T15:54:19;19.20;43.70
6986;DHT22;3533;51.246;6.850;2023-04-03T15:56:45;19.20;43.60
6986;DHT22;3533;51.246;6.850;2023-04-03T15:59:11;19.20;43.70
6986;DHT22;3533;51.246;6.850;2023-04-03T16:01:37;19.20;43.60
6986;DHT22;3533;51.246;6.850;2023-04-03T16:04:03;19.20;43.60
6986;DHT22;3533;51.246;6.850;2023-04-03T16:06:29;19.30;43.60
6986;DHT22;3533;51.246;6.850;2023-04-03T16:08:56;19.20;43.50
6986;DHT22;3533;51.246;6.850;2023-04-03T16:11:24;19.30;43.60
6986;DHT22;3533;51.246;6.850;2023-04-03T16:13:49;19.20;43.50
6986;DHT22;3533;51.246;6.850;2023-04-03T16:16:15;19.30;43.60
6986;DHT22;3533;51.246;6.850;2023-04-03T16:18:40;19.20;43.60
6986;DHT22;3533;51.246;6.850;2023-04-03T16:21:08;19.20;43.50
6986;DHT22;3533;51.246;6.850;2023-04-03T16:23:34;19.20;43.50
6986;DHT22;3533;51.246;6.850;2023-04-03T16:26:00;19.20;43.50
6986;DHT22;3533;51.246;6.850;2023-04-03T16:28:25;19.20;43.50
6986;DHT22;3533;51.246;6.850;2023-04-03T16:30:51;19.30;43.60
6986;DHT22;3533;51.246;6.850;2023-04-03T16:33:17;19.20;43.40
6986;DHT22;3533;51.246;6.850;2023-04-03T16:35:43;19.20;43.30
6986;DHT22;3533;51.246;6.850;2023-04-03T16:38:09;19.20;43.30
6986;DHT22;3533;51.246;6.850;2023-04-03T16:40:35;19.20;43.30
6986;DHT22;3533;51.246;6.850;2023-04-03T16:43:01;19.20;43.30
6986;DHT22;3533;51.246;6.850;2023-04-03T16:45:27;19.20;43.30
6986;DHT22;3533;51.246;6.850;2023-04-03T16:47:52;19.20;43.30
6986;DHT22;3533;51.246;6.850;2023-04-03T16:50:18;19.20;43.40
6986;DHT22;3533;51.246;6.850;2023-04-03T16:52:45;19.20;43.30
6986;DHT22;3533;51.246;6.850;2023-04-03T16:55:11;19.20;43.30
6986;DHT22;3533;51.246;6.850;2023-04-03T16:57:37;19.30;43.50
6986;DHT22;3533;51.246;6.850;2023-04-03T17:00:03;19.20;43.20
6986;DHT22;3533;51.246;6.850;2023-04-03T17:02:29;19.20;43.20
6986;DHT22;3533;51.246;6.850;2023-04-03T17:04:55;19.20;43.30
6986;DHT22;3533;51.246;6.850;2023-04-03T17:07:22;19.20;43.30
6986;DHT22;3533;51.246;6.850;2023-04-03T17:09:49;19.20;43.30
6986;DHT22;3533;51.246;6.850;2023-04-03T17:12:15;19.20;43.60
6986;DHT22;3533;51.246;6.850;2023-04-03T17:14:41;19.20;43.20
6986;DHT22;3533;51.246;6.850;2023-04-03T17:17:07;19.20;43.30
6986;DHT22;3533;51.246;6.850;2023-04-03T17:19:33;19.20;43.30
6986;DHT22;3533;51.246;6.850;2023-04-03T17:21:59;19.30;43.40
6986;DHT22;3533;51.246;6.850;2023-04-03T17:24:25;19.20;43.30
6986;DHT22;3533;51.246;6.850;2023-04-03T17:26:51;19.20;43.40
6986;DHT22;3533;51.246;6.850;2023-04-03T17:29:16;19.20;43.30
6986;DHT22;3533;51.246;6.850;2023-04-03T17:31:42;19.20;43.30
6986;DHT22;3533;51.246;6.850;2023-04-03T17:34:07;19.20;43.30
6986;DHT22;3533;51.246;6.850;2023-04-03T17:36:36;19.20;43.30
6986;DHT22;3533;51.246;6.850;2023-04-03T17:39:02;19.30;43.40
6986;DHT22;3533;51.246;6.850;2023-04-03T17:41:28;19.20;43.20
6986;DHT22;3533;51.246;6.850;2023-04-03T17:43:53;19.20;43.30
6986;DHT22;3533;51.246;6.850;2023-04-03T17:46:21;19.20;43.20
6986;DHT22;3533;51.246;6.850;2023-04-03T17:48:47;19.20;43.20
6986;DHT22;3533;51.246;6.850;2023-04-03T17:51:16;19.20;43.30
6986;DHT22;3533;51.246;6.850;2023-04-03T17:53:42;19.20;43.30
6986;DHT22;3533;51.246;6.850;2023-04-03T17:56:16;19.20;43.30
6986;DHT22;3533;51.246;6.850;2023-04-03T17:58:43;19.20;43.30
6986;DHT22;3533;51.246;6.850;2023-04-03T18:03:36;19.20;43.30
6986;DHT22;3533;51.246;6.850;2023-04-03T18:06:03;19.20;43.30
6986;DHT22;3533;51.246;6.850;2023-04-03T18:08:31;19.20;43.30
6986;DHT22;3533;51.246;6.850;2023-04-03T18:10:57;19.20;43.30
6986;DHT22;3533;51.246;6.850;2023-04-03T18:13:23;19.20;43.40
6986;DHT22;3533;51.246;6.850;2023-04-03T18:15:48;19.20;43.40
6986;DHT22;3533;51.246;6.850;2023-04-03T18:18:14;19.20;43.40
6986;DHT22;3533;51.246;6.850;2023-04-03T18:20:40;19.20;43.40
6986;DHT22;3533;51.246;6.850;2023-04-03T18:23:06;19.20;43.30